Time;durP1;ratioP1;P1;durP2;ratioP2;P2;SDS_P1;SDS_P2;PMS_P1;PMS_P2;Temp;Humidity;BMP_temperature;BMP_pressure;BME280_temperature;BME280_humidity;BME280_pressure;Samples;Min_cycle;Max_cycle;Signal;HPM_P1;HPM_P2
2022/08/17 00:02:19;;;;;;;;;;;;;;;25.30;54.67;99738.78;5390483;32;34305;-65
2022/08/17 00:05:29;;;;;;;;;;;;;;;24.50;57.34;99746.62;5363994;32;35056;-65
2022/08/17 00:08:38;;;;;;;;;;;;;;;24.61;57.02;99747.31;5382444;32;34879;-70
2022/08/17 00:11:41;;;;;;;;;;;;;;;24.42;58.40;99752.00;5370820;32;36529;-74
2022/08/17 00:15:03;;;;;;;;;;;;;;;24.62;56.87;99746.31;5376072;32;36620;-65
2022/08/17 00:18:05;;;;;;;;;;;;;;;24.40;58.43;99747.78;5368897;32;35161;-74
2022/08/17 00:21:27;;;;;;;;;;;;;;;24.63;57.32;99748.84;5366412;32;34970;-66
2022/08/17 00:24:49;;;;;;;;;;;;;;;23.96;59.55;99751.47;5372490;32;44908;-74
2022/08/17 00:27:51;;;;;;;;;;;;;;;24.01;59.86;99750.97;5366949;32;35145;-67
2022/08/17 00:30:54;;;;;;;;;;;;;;;23.86;59.82;99744.53;5382733;32;34889;-74
2022/08/17 00:33:56;;;;;;;;;;;;;;;24.47;56.91;99748.78;5374191;32;34837;-75
2022/08/17 00:36:58;;;;;;;;;;;;;;;24.18;57.93;99741.13;5371111;32;35776;-74
2022/08/17 00:40:00;;;;;;;;;;;;;;;24.14;58.30;99745.16;5384514;32;34173;-65
2022/08/17 00:43:20;;;;;;;;;;;;;;;24.81;56.37;99744.16;5371170;32;34381;-73
2022/08/17 00:46:33;;;;;;;;;;;;;;;24.77;56.10;99747.34;5386334;32;44917;-74
2022/08/17 00:49:35;;;;;;;;;;;;;;;25.24;54.25;99739.44;5373360;32;35091;-73
2022/08/17 00:52:38;;;;;;;;;;;;;;;25.18;54.32;99740.13;5372170;32;34717;-73
2022/08/17 00:55:40;;;;;;;;;;;;;;;25.75;52.74;99739.22;5379043;32;35810;-65
2022/08/17 00:58:42;;;;;;;;;;;;;;;25.48;53.26;99746.66;5351663;32;35638;-74
2022/08/17 01:01:44;;;;;;;;;;;;;;;25.38;53.54;99760.31;5388905;32;42871;-73
2022/08/17 01:04:47;;;;;;;;;;;;;;;25.01;54.61;99765.34;5351659;32;34833;-73
2022/08/17 01:07:49;;;;;;;;;;;;;;;24.80;55.04;99758.59;5357577;32;35295;-74
2022/08/17 01:10:52;;;;;;;;;;;;;;;24.87;54.87;99764.16;5381851;32;34786;-73
2022/08/17 01:14:02;;;;;;;;;;;;;;;25.30;53.73;99764.84;5364793;32;34402;-72
2022/08/17 01:17:04;;;;;;;;;;;;;;;25.05;54.68;99766.69;5380284;32;34984;-65
2022/08/17 01:20:06;;;;;;;;;;;;;;;25.32;53.59;99768.22;5372056;32;34168;-74
2022/08/17 01:23:08;;;;;;;;;;;;;;;25.13;53.42;99764.03;5368832;32;34729;-74
2022/08/17 01:26:12;;;;;;;;;;;;;;;24.45;55.61;99772.28;5370926;32;34397;-66
2022/08/17 01:29:14;;;;;;;;;;;;;;;24.51;55.78;99771.63;5366805;32;44899;-65
2022/08/17 01:32:17;;;;;;;;;;;;;;;24.98;53.49;99761.09;5384672;32;35384;-67
2022/08/17 01:35:19;;;;;;;;;;;;;;;24.27;55.62;99764.31;5348999;32;34726;-71
2022/08/17 01:38:22;;;;;;;;;;;;;;;23.32;58.40;99776.06;5364144;32;34579;-65
2022/08/17 01:41:27;;;;;;;;;;;;;;;23.63;57.66;99761.19;5372329;32;36247;-66
2022/08/17 01:44:29;;;;;;;;;;;;;;;23.74;57.18;99768.97;5381680;32;35773;-75
2022/08/17 01:47:31;;;;;;;;;;;;;;;23.97;56.80;99771.09;5368994;32;35450;-73
2022/08/17 01:50:36;;;;;;;;;;;;;;;23.33;58.63;99769.69;5369867;32;35546;-73
2022/08/17 01:53:39;;;;;;;;;;;;;;;23.42;58.03;99768.72;5367238;32;34964;-66
2022/08/17 01:56:43;;;;;;;;;;;;;;;23.55;57.43;99765.63;5339580;32;35179;-73
2022/08/17 01:59:48;;;;;;;;;;;;;;;23.28;58.25;99777.34;5384060;32;47211;-65
2022/08/17 02:02:50;;;;;;;;;;;;;;;23.39;58.15;99767.22;5370820;32;35339;-71
2022/08/17 02:05:52;;;;;;;;;;;;;;;23.68;57.18;99766.91;5383166;32;34952;-65
2022/08/17 02:08:54;;;;;;;;;;;;;;;23.17;58.77;99773.91;5366546;32;35201;-65
2022/08/17 02:12:04;;;;;;;;;;;;;;;24.35;55.02;99771.63;5370810;32;34163;-66
2022/08/17 02:15:26;;;;;;;;;;;;;;;24.89;53.27;99772.03;5386858;32;36009;-65
2022/08/17 02:18:29;;;;;;;;;;;;;;;24.55;54.04;99775.69;5369593;32;34227;-65
2022/08/17 02:21:31;;;;;;;;;;;;;;;24.79;53.31;99772.19;5373003;32;35000;-72
2022/08/17 02:24:33;;;;;;;;;;;;;;;24.30;54.66;99764.84;5367211;32;35565;-72
2022/08/17 02:27:55;;;;;;;;;;;;;;;23.98;55.60;99762.88;5366450;32;35383;-74
2022/08/17 02:31:02;;;;;;;;;;;;;;;24.05;56.04;99758.53;5388633;32;34627;-67
2022/08/17 02:34:05;;;;;;;;;;;;;;;23.76;56.93;99750.88;5350494;32;34363;-66
2022/08/17 02:37:07;;;;;;;;;;;;;;;24.12;55.85;99761.41;5385791;32;34238;-74
2022/08/17 02:40:09;;;;;;;;;;;;;;;24.24;55.12;99756.59;5372167;32;34481;-68
2022/08/17 02:43:12;;;;;;;;;;;;;;;24.56;54.10;99755.88;5375876;32;34445;-66
2022/08/17 02:46:14;;;;;;;;;;;;;;;24.02;55.86;99760.69;5376395;32;45104;-72
2022/08/17 02:49:16;;;;;;;;;;;;;;;23.60;57.44;99752.59;5361742;32;35654;-65
2022/08/17 02:52:18;;;;;;;;;;;;;;;23.58;58.81;99754.59;5387377;32;34836;-65
2022/08/17 02:55:40;;;;;;;;;;;;;;;23.83;58.23;99764.50;5361172;32;34524;-73
2022/08/17 02:58:42;;;;;;;;;;;;;;;24.16;56.36;99762.78;5364498;32;34866;-65
2022/08/17 03:01:44;;;;;;;;;;;;;;;23.68;57.76;99766.91;5370426;32;44706;-65
2022/08/17 03:04:46;;;;;;;;;;;;;;;23.65;58.16;99764.56;5366882;32;35070;-66
2022/08/17 03:07:47;;;;;;;;;;;;;;;22.87;61.32;99768.97;5376324;32;35231;-65
2022/08/17 03:10:49;;;;;;;;;;;;;;;23.20;61.28;99772.78;5369679;32;35032;-65
2022/08/17 03:13:51;;;;;;;;;;;;;;;23.27;60.88;99767.63;5380454;32;35147;-65
2022/08/17 03:16:53;;;;;;;;;;;;;;;23.42;59.88;99763.38;5364858;32;34673;-66
2022/08/17 03:19:55;;;;;;;;;;;;;;;24.05;58.03;99769.28;5383747;32;34859;-66
2022/08/17 03:22:57;;;;;;;;;;;;;;;24.57;55.80;99766.44;5367023;32;35431;-70
2022/08/17 03:26:03;;;;;;;;;;;;;;;24.59;55.47;99768.97;5373736;32;35035;-74
2022/08/17 03:29:17;;;;;;;;;;;;;;;24.39;56.08;99765.72;5384652;32;35232;-74
2022/08/17 03:32:19;;;;;;;;;;;;;;;24.08;57.14;99780.69;5370120;32;45275;-74
2022/08/17 03:35:23;;;;;;;;;;;;;;;23.31;60.22;99785.91;5389717;32;34298;-66
2022/08/17 03:38:25;;;;;;;;;;;;;;;23.42;59.95;99788.34;5348613;32;35302;-66
2022/08/17 03:41:27;;;;;;;;;;;;;;;23.86;58.32;99796.38;5385121;32;34982;-75
2022/08/17 03:44:29;;;;;;;;;;;;;;;24.22;57.43;99785.47;5365018;32;34993;-73
2022/08/17 03:57:35;;;;;;;;;;;;;;;23.99;57.28;99796.75;5341928;32;34950;-65
2022/08/17 04:00:41;;;;;;;;;;;;;;;23.44;58.76;99799.78;5381692;32;34949;-67
2022/08/17 04:03:42;;;;;;;;;;;;;;;22.78;60.86;99812.72;5364094;32;35029;-65
2022/08/17 04:06:45;;;;;;;;;;;;;;;23.14;59.79;99805.56;5379142;32;45336;-65
2022/08/17 04:09:46;;;;;;;;;;;;;;;22.97;60.75;99809.91;5366142;32;35433;-66
2022/08/17 04:12:50;;;;;;;;;;;;;;;23.19;60.55;99811.31;5379683;32;34872;-67
2022/08/17 04:15:52;;;;;;;;;;;;;;;22.81;61.79;99821.31;5374857;32;35362;-74
2022/08/17 04:18:54;;;;;;;;;;;;;;;23.36;59.96;99809.56;5368909;32;34971;-72
2022/08/17 04:21:59;;;;;;;;;;;;;;;23.04;61.12;99813.66;5379758;32;37985;-74
2022/08/17 04:25:03;;;;;;;;;;;;;;;24.10;57.45;99813.59;5370388;32;35482;-64
2022/08/17 04:28:04;;;;;;;;;;;;;;;24.04;57.40;99810.56;5383196;32;34726;-73
2022/08/17 04:31:16;;;;;;;;;;;;;;;23.09;60.72;99814.06;5368450;32;44658;-64
2022/08/17 04:34:18;;;;;;;;;;;;;;;23.34;60.24;99816.94;5383065;32;35492;-65
2022/08/17 04:37:20;;;;;;;;;;;;;;;24.17;57.39;99820.84;5356633;32;35481;-73
2022/08/17 04:43:44;;;;;;;;;;;;;;;23.22;60.42;99833.25;5368038;32;34689;-65
2022/08/17 04:46:46;;;;;;;;;;;;;;;23.72;58.53;99824.63;5364065;32;35293;-65
2022/08/17 04:49:48;;;;;;;;;;;;;;;23.60;59.33;99828.53;5382620;32;34849;-67
2022/08/17 04:52:50;;;;;;;;;;;;;;;23.74;58.96;99833.34;5367916;32;35412;-66
2022/08/17 04:55:52;;;;;;;;;;;;;;;24.59;55.58;99825.37;5368805;32;34935;-74
2022/08/17 04:58:56;;;;;;;;;;;;;;;25.45;52.63;99838.47;5348054;32;35273;-66
2022/08/17 05:01:58;;;;;;;;;;;;;;;25.03;53.13;99834.03;5368840;32;34999;-66
2022/08/17 05:05:00;;;;;;;;;;;;;;;24.68;54.21;99837.00;5383226;32;34821;-66
2022/08/17 05:08:03;;;;;;;;;;;;;;;25.24;53.43;99836.25;5362192;32;34185;-65
2022/08/17 05:11:06;;;;;;;;;;;;;;;25.08;53.38;99850.56;5383974;32;35602;-74
2022/08/17 05:14:08;;;;;;;;;;;;;;;26.77;48.21;99835.22;5368166;32;34495;-71
2022/08/17 05:17:09;;;;;;;;;;;;;;;27.10;46.96;99845.81;5367164;32;37143;-66
2022/08/17 05:20:12;;;;;;;;;;;;;;;26.95;47.49;99843.03;5383150;32;35723;-65
2022/08/17 05:23:15;;;;;;;;;;;;;;;27.34;46.17;99837.56;5362024;32;44879;-74
2022/08/17 05:26:18;;;;;;;;;;;;;;;28.01;44.79;99837.59;5387147;32;35327;-73
2022/08/17 05:29:27;;;;;;;;;;;;;;;27.75;45.05;99837.19;5362823;32;35095;-75
2022/08/17 05:32:36;;;;;;;;;;;;;;;28.70;43.32;99836.44;5383910;32;34439;-73
2022/08/17 05:35:43;;;;;;;;;;;;;;;29.94;40.08;99832.38;5372586;32;35043;-65
2022/08/17 05:38:45;;;;;;;;;;;;;;;30.05;39.45;99829.12;5350908;32;44648;-64
2022/08/17 05:41:47;;;;;;;;;;;;;;;30.12;39.67;99830.03;5380235;32;34415;-65
2022/08/17 05:44:48;;;;;;;;;;;;;;;30.70;38.18;99832.41;5354938;32;34086;-64
2022/08/17 05:47:53;;;;;;;;;;;;;;;30.48;38.97;99834.37;5381473;32;34432;-65
2022/08/17 05:51:10;;;;;;;;;;;;;;;31.77;36.18;99818.75;5370061;32;35482;-72
2022/08/17 05:54:18;;;;;;;;;;;;;;;31.17;36.84;99838.75;5368550;32;34938;-70
2022/08/17 05:57:20;;;;;;;;;;;;;;;30.54;38.75;99843.59;5362243;32;44842;-73
2022/08/17 06:00:23;;;;;;;;;;;;;;;29.60;40.33;99839.44;5366888;32;34397;-66
2022/08/17 06:03:38;;;;;;;;;;;;;;;29.04;41.89;99850.16;5369700;32;34128;-67
2022/08/17 06:07:00;;;;;;;;;;;;;;;31.15;37.75;99841.69;5370442;32;34875;-69
2022/08/17 06:10:04;;;;;;;;;;;;;;;30.80;38.21;99846.41;5364936;32;34918;-71
2022/08/17 06:13:06;;;;;;;;;;;;;;;30.48;38.70;99845.22;5381763;32;35447;-75
2022/08/17 06:16:10;;;;;;;;;;;;;;;31.74;35.82;99840.87;5355752;32;34037;-73
2022/08/17 06:19:35;;;;;;;;;;;;;;;30.67;37.82;99849.06;5386015;32;34403;-69
2022/08/17 06:22:43;;;;;;;;;;;;;;;31.24;36.17;99858.66;5354313;32;34034;-77
2022/08/17 06:25:47;;;;;;;;;;;;;;;29.72;39.85;99852.47;5382610;32;44533;-78
2022/08/17 06:28:50;;;;;;;;;;;;;;;31.93;35.77;99854.69;5378884;32;34283;-74
2022/08/17 06:31:52;;;;;;;;;;;;;;;32.16;35.08;99854.22;5358154;32;34570;-69
2022/08/17 06:34:56;;;;;;;;;;;;;;;30.96;37.82;99862.31;5390169;32;34236;-90
2022/08/17 06:38:01;;;;;;;;;;;;;;;32.58;34.04;99848.22;5357512;32;35415;-73
2022/08/17 06:41:21;;;;;;;;;;;;;;;32.84;33.22;99849.16;5373791;32;34263;-72
2022/08/17 06:44:23;;;;;;;;;;;;;;;33.98;31.54;99850.84;5371977;32;46191;-76
2022/08/17 06:47:51;;;;;;;;;;;;;;;35.65;28.58;99848.44;5365718;32;44813;-79
2022/08/17 06:50:53;;;;;;;;;;;;;;;33.01;32.34;99854.97;5373676;32;35364;-77
2022/08/17 06:54:06;;;;;;;;;;;;;;;33.73;31.88;99852.75;5373506;32;35430;-83
2022/08/17 06:57:17;;;;;;;;;;;;;;;35.55;28.35;99850.91;5366109;32;36106;-75
2022/08/17 07:00:23;;;;;;;;;;;;;;;32.54;33.32;99848.91;5372972;32;44446;-72
2022/08/17 07:03:28;;;;;;;;;;;;;;;34.71;29.32;99844.56;5362200;32;33880;-70
2022/08/17 07:06:35;;;;;;;;;;;;;;;33.59;31.35;99844.69;5378896;32;34256;-78
2022/08/17 07:09:38;;;;;;;;;;;;;;;33.09;31.91;99851.97;5376514;32;36348;-80
2022/08/17 07:12:41;;;;;;;;;;;;;;;32.92;32.16;99848.13;5356644;32;35820;-74
2022/08/17 07:15:43;;;;;;;;;;;;;;;33.70;30.58;99851.31;5368476;32;34283;-72
2022/08/17 07:18:45;;;;;;;;;;;;;;;33.87;30.66;99851.56;5378668;32;44692;-81
2022/08/17 07:21:50;;;;;;;;;;;;;;;35.58;27.89;99853.19;5358782;32;35474;-75
2022/08/17 07:24:56;;;;;;;;;;;;;;;37.75;24.38;99850.72;5375750;32;34558;-77
2022/08/17 07:28:01;;;;;;;;;;;;;;;35.56;27.47;99851.75;5384969;32;34245;-72
2022/08/17 07:31:08;;;;;;;;;;;;;;;33.84;30.10;99847.41;5373038;32;34228;-75
2022/08/17 07:34:13;;;;;;;;;;;;;;;35.71;27.16;99846.66;5355698;32;35374;-71
2022/08/17 07:37:18;;;;;;;;;;;;;;;34.43;29.11;99845.97;5368826;32;44734;-77
2022/08/17 07:40:30;;;;;;;;;;;;;;;36.81;25.78;99845.78;5375736;32;34320;-74
2022/08/17 07:43:36;;;;;;;;;;;;;;;35.17;28.01;99846.69;5383863;32;34873;-79
2022/08/17 07:50:38;;;;;;;;;;;;;;;36.67;25.41;99841.66;5379248;32;33696;-73
2022/08/17 07:53:40;;;;;;;;;;;;;;;37.44;24.26;99835.72;5368684;32;34310;-72
2022/08/17 07:56:44;;;;;;;;;;;;;;;36.09;26.17;99843.44;5352086;32;35519;-72
2022/08/17 07:59:58;;;;;;;;;;;;;;;36.86;25.00;99844.00;5376677;32;46242;-75
2022/08/17 08:03:03;;;;;;;;;;;;;;;35.99;26.52;99844.03;5370315;32;34107;-75
2022/08/17 08:06:16;;;;;;;;;;;;;;;38.30;23.53;99847.16;5380811;32;34883;-79
2022/08/17 08:09:32;;;;;;;;;;;;;;;36.53;25.38;99854.81;5370334;32;44750;-73
2022/08/17 08:12:38;;;;;;;;;;;;;;;37.06;24.20;99845.44;5367033;32;34152;-69
2022/08/17 08:15:47;;;;;;;;;;;;;;;36.73;24.51;99843.44;5380916;32;32843;-69
2022/08/17 08:18:56;;;;;;;;;;;;;;;36.40;24.70;99844.97;5358673;32;34501;-76
2022/08/17 08:22:09;;;;;;;;;;;;;;;36.91;24.51;99837.78;5386602;32;34894;-71
2022/08/17 08:25:21;;;;;;;;;;;;;;;37.05;24.05;99843.78;5377056;32;34290;-85
2022/08/17 08:28:34;;;;;;;;;;;;;;;36.93;24.07;99832.87;5361631;32;34294;-81
2022/08/17 08:31:56;;;;;;;;;;;;;;;36.92;24.11;99842.19;5372517;32;34749;-76
2022/08/17 08:35:06;;;;;;;;;;;;;;;36.87;24.48;99840.19;5354267;32;35255;-73
2022/08/17 08:38:18;;;;;;;;;;;;;;;40.35;20.43;99829.47;5364254;32;32821;-76
2022/08/17 08:41:29;;;;;;;;;;;;;;;41.85;18.43;99831.06;5379562;32;46522;-74
2022/08/17 08:44:37;;;;;;;;;;;;;;;40.89;19.18;99829.09;5362123;32;33859;-74
2022/08/17 08:48:06;;;;;;;;;;;;;;;40.90;19.22;99828.06;5387393;32;35857;-71
2022/08/17 08:51:26;;;;;;;;;;;;;;;41.33;18.64;99823.94;5361040;32;45967;-76
2022/08/17 08:54:32;;;;;;;;;;;;;;;39.67;20.47;99834.03;5377224;32;34355;-72
2022/08/17 08:57:38;;;;;;;;;;;;;;;38.70;21.76;99822.09;5362881;32;36108;-68
2022/08/17 09:00:42;;;;;;;;;;;;;;;39.37;20.74;99829.94;5347164;32;35453;-71
2022/08/17 09:03:47;;;;;;;;;;;;;;;40.83;18.99;99814.47;5384241;32;43586;-72
2022/08/17 09:07:03;;;;;;;;;;;;;;;42.53;17.38;99814.00;5373054;32;35551;-73
2022/08/17 09:10:07;;;;;;;;;;;;;;;42.26;17.70;99813.59;5381952;32;34390;-67
2022/08/17 09:13:21;;;;;;;;;;;;;;;40.38;19.73;99817.09;5342565;32;916865;-71
2022/08/17 09:16:31;;;;;;;;;;;;;;;39.85;20.03;99825.34;5369924;32;44324;-66
2022/08/17 09:19:36;;;;;;;;;;;;;;;39.60;20.19;99826.00;5368617;32;34378;-71
2022/08/17 09:22:43;;;;;;;;;;;;;;;39.33;20.33;99830.72;5354910;32;35722;-68
2022/08/17 09:25:50;;;;;;;;;;;;;;;38.90;20.61;99822.34;5372542;32;44627;-72
2022/08/17 09:28:53;;;;;;;;;;;;;;;39.39;19.77;99824.19;5372589;32;32978;-69
2022/08/17 09:31:56;;;;;;;;;;;;;;;41.42;17.74;99823.41;5374569;32;34569;-71
2022/08/17 09:35:04;;;;;;;;;;;;;;;39.65;19.86;99826.03;5363093;32;34377;-73
2022/08/17 09:38:15;;;;;;;;;;;;;;;39.39;20.19;99819.50;5373710;32;34274;-70
2022/08/17 09:41:23;;;;;;;;;;;;;;;39.94;19.66;99820.19;5390072;32;44565;-74
2022/08/17 09:44:51;;;;;;;;;;;;;;;39.83;19.82;99811.03;5368531;32;34396;-70
2022/08/17 09:48:05;;;;;;;;;;;;;;;39.93;19.23;99815.75;5371954;32;44806;-78
2022/08/17 09:51:20;;;;;;;;;;;;;;;39.66;19.68;99813.13;5372431;32;34527;-74
2022/08/17 09:54:28;;;;;;;;;;;;;;;41.00;17.67;99799.66;5365047;32;32925;-70
2022/08/17 09:57:51;;;;;;;;;;;;;;;40.98;17.94;99794.44;5365122;32;46608;-78
2022/08/17 10:00:58;;;;;;;;;;;;;;;43.07;16.04;99788.25;5377767;32;34156;-78
2022/08/17 10:04:19;;;;;;;;;;;;;;;45.50;13.49;99784.59;5370352;32;34158;-78
2022/08/17 10:07:26;;;;;;;;;;;;;;;40.87;17.61;99798.25;5382230;32;36525;-72
2022/08/17 10:10:32;;;;;;;;;;;;;;;41.43;17.13;99795.56;5375647;32;35425;-74
2022/08/17 10:13:52;;;;;;;;;;;;;;;41.67;16.81;99790.25;5361238;32;34117;-75
2022/08/17 10:17:10;;;;;;;;;;;;;;;43.01;15.36;99785.81;5389005;32;33985;-72
2022/08/17 10:20:15;;;;;;;;;;;;;;;42.94;14.44;99792.47;5370249;32;33099;-70
2022/08/17 10:26:41;;;;;;;;;;;;;;;41.52;15.23;99793.88;5365390;32;35499;-68
2022/08/17 10:29:58;;;;;;;;;;;;;;;43.67;13.31;99793.50;5372220;32;35352;-69
2022/08/17 10:33:02;;;;;;;;;;;;;;;41.08;15.09;99788.09;5374877;32;35283;-70
2022/08/17 10:36:36;;;;;;;;;;;;;;;44.28;12.65;99782.59;5359270;32;34529;-72
2022/08/17 10:39:43;;;;;;;;;;;;;;;43.55;12.12;99790.34;5343873;32;34376;-67
2022/08/17 10:43:01;;;;;;;;;;;;;;;41.35;14.43;99788.66;5379133;32;47210;-68
2022/08/17 10:46:15;;;;;;;;;;;;;;;42.86;13.34;99792.25;5358344;32;34329;-68
2022/08/17 10:49:46;;;;;;;;;;;;;;;41.42;14.47;99793.06;5371455;32;34539;-67
2022/08/17 10:52:49;;;;;;;;;;;;;;;38.51;17.57;99798.81;5369779;32;45030;-69
2022/08/17 10:56:10;;;;;;;;;;;;;;;39.80;15.85;99795.91;5368565;32;35622;-63
2022/08/17 10:59:32;;;;;;;;;;;;;;;37.60;19.02;99797.31;5371802;32;34784;-64
2022/08/17 11:02:53;;;;;;;;;;;;;;;38.37;18.34;99793.72;5371073;32;35100;-65
2022/08/17 11:06:01;;;;;;;;;;;;;;;39.49;17.34;99792.09;5368780;32;34739;-63
2022/08/17 11:09:10;;;;;;;;;;;;;;;40.28;16.80;99785.69;5366429;32;34220;-66
2022/08/17 11:12:12;;;;;;;;;;;;;;;40.40;16.46;99790.13;5384749;32;34932;-64
2022/08/17 11:15:20;;;;;;;;;;;;;;;40.63;16.18;99775.06;5374207;32;34605;-64
2022/08/17 11:18:24;;;;;;;;;;;;;;;42.90;14.03;99779.53;5360181;32;35062;-65
2022/08/17 11:21:26;;;;;;;;;;;;;;;41.96;14.43;99778.63;5387046;32;35229;-66
2022/08/17 11:24:34;;;;;;;;;;;;;;;41.47;14.44;99768.22;5369167;32;34417;-67
2022/08/17 11:27:36;;;;;;;;;;;;;;;42.96;13.34;99768.16;5386825;32;32868;-66
2022/08/17 11:30:46;;;;;;;;;;;;;;;43.73;13.12;99764.66;5359129;32;34256;-64
2022/08/17 11:33:51;;;;;;;;;;;;;;;44.94;12.09;99750.31;5375060;32;44386;-65
2022/08/17 11:36:54;;;;;;;;;;;;;;;43.80;12.81;99754.12;5390068;32;35053;-65
2022/08/17 11:40:17;;;;;;;;;;;;;;;46.84;10.45;99742.59;5375447;32;35462;-64
2022/08/17 11:43:29;;;;;;;;;;;;;;;44.48;12.16;99742.69;5388868;32;45600;-67
2022/08/17 11:53:41;;;;;;;;;;;;;;;44.63;12.02;99735.28;5388989;32;35752;-66
2022/08/17 11:56:47;;;;;;;;;;;;;;;44.26;12.54;99742.47;5357637;32;36119;-71
2022/08/17 11:59:52;;;;;;;;;;;;;;;45.68;11.64;99732.94;5363067;32;44431;-70
2022/08/17 12:03:20;;;;;;;;;;;;;;;45.14;11.79;99732.53;5382416;32;34824;-70
2022/08/17 12:06:26;;;;;;;;;;;;;;;45.29;11.74;99737.81;5368041;32;46798;-69
2022/08/17 12:09:31;;;;;;;;;;;;;;;45.73;11.38;99730.06;5384160;32;36116;-70
2022/08/17 12:12:34;;;;;;;;;;;;;;;45.85;11.60;99731.19;5362271;32;35373;-72
2022/08/17 12:15:39;;;;;;;;;;;;;;;45.90;11.63;99721.94;5376891;32;33531;-73
2022/08/17 12:18:47;;;;;;;;;;;;;;;43.74;13.10;99730.38;5380101;32;34777;-91
2022/08/17 12:21:57;;;;;;;;;;;;;;;43.90;12.71;99723.53;5373152;32;44920;-76
2022/08/17 12:25:03;;;;;;;;;;;;;;;43.53;13.17;99721.47;5383615;32;34874;-70
2022/08/17 12:28:17;;;;;;;;;;;;;;;44.90;12.16;99718.78;5371088;32;34088;-66
2022/08/17 12:31:25;;;;;;;;;;;;;;;46.84;10.55;99707.28;5373248;32;44636;-71
2022/08/17 12:34:34;;;;;;;;;;;;;;;46.07;11.33;99711.00;5374836;32;36303;-72
2022/08/17 12:37:42;;;;;;;;;;;;;;;45.91;11.07;99709.69;5373806;32;35800;-71
2022/08/17 12:41:27;;;;;;;;;;;;;;;44.38;12.00;99708.78;5385304;32;38012;-72
2022/08/17 12:44:30;;;;;;;;;;;;;;;46.54;10.55;99703.28;5333627;32;33784;-69
2022/08/17 12:47:34;;;;;;;;;;;;;;;45.86;10.76;99698.69;5337126;32;35155;-75
2022/08/17 12:50:38;;;;;;;;;;;;;;;46.76;10.26;99701.63;5331579;32;34475;-72
2022/08/17 12:53:41;;;;;;;;;;;;;;;43.57;12.53;99711.47;5337237;32;35250;-68
2022/08/17 12:56:45;;;;;;;;;;;;;;;41.20;14.60;99710.63;5324027;32;44536;-73
2022/08/17 12:59:52;;;;;;;;;;;;;;;39.39;16.58;99712.28;5318406;32;35024;-77
2022/08/17 13:03:02;;;;;;;;;;;;;;;39.00;16.99;99704.31;5346443;32;34336;-74
2022/08/17 13:06:05;;;;;;;;;;;;;;;37.92;18.43;99703.44;5310591;32;34440;-76
2022/08/17 13:09:12;;;;;;;;;;;;;;;38.78;17.33;99711.00;5319230;32;34890;-74
2022/08/17 13:12:14;;;;;;;;;;;;;;;37.40;18.77;99704.66;5345734;32;37785;-75
2022/08/17 13:15:26;;;;;;;;;;;;;;;37.70;18.33;99705.34;5337071;32;43726;-70
2022/08/17 13:18:41;;;;;;;;;;;;;;;38.37;17.79;99705.91;5376945;32;34942;-78
2022/08/17 13:21:46;;;;;;;;;;;;;;;37.67;18.44;99710.22;5374002;32;34494;-74
2022/08/17 13:24:51;;;;;;;;;;;;;;;37.66;18.55;99707.75;5376866;32;46912;-75
2022/08/17 13:27:54;;;;;;;;;;;;;;;38.38;17.61;99701.25;5374564;32;34897;-71
2022/08/17 13:31:15;;;;;;;;;;;;;;;37.33;18.57;99712.22;5374812;32;35498;-71
2022/08/17 13:34:17;;;;;;;;;;;;;;;37.12;18.83;99702.00;5389810;32;44563;-72
2022/08/17 13:37:25;;;;;;;;;;;;;;;37.39;18.51;99688.47;5378639;32;34767;-74
2022/08/17 13:40:37;;;;;;;;;;;;;;;37.49;18.45;99688.63;5382835;32;35277;-74
2022/08/17 13:43:49;;;;;;;;;;;;;;;37.25;18.83;99689.88;5388634;32;37479;-76
2022/08/17 13:46:51;;;;;;;;;;;;;;;36.87;19.28;99694.22;5372943;32;44773;-82
2022/08/17 13:49:58;;;;;;;;;;;;;;;36.92;19.04;99701.69;5390083;32;34100;-74
2022/08/17 13:53:00;;;;;;;;;;;;;;;36.59;19.46;99700.56;5371593;32;34333;-69
2022/08/17 13:56:02;;;;;;;;;;;;;;;36.91;18.86;99691.81;5372660;32;35485;-72
2022/08/17 13:59:14;;;;;;;;;;;;;;;36.53;18.89;99688.69;5359898;32;35959;-78
2022/08/17 14:02:17;;;;;;;;;;;;;;;36.72;19.38;99699.41;5381128;32;44238;-74
2022/08/17 14:05:19;;;;;;;;;;;;;;;37.08;18.87;99685.25;5372908;32;35334;-75
2022/08/17 14:08:29;;;;;;;;;;;;;;;36.37;19.53;99697.66;5373214;32;32953;-82
2022/08/17 14:11:31;;;;;;;;;;;;;;;36.84;19.19;99691.94;5403116;32;35780;-70
2022/08/17 14:14:34;;;;;;;;;;;;;;;37.36;18.52;99683.50;5372143;32;35451;-72
2022/08/17 14:17:36;;;;;;;;;;;;;;;37.09;18.81;99691.53;5364385;32;32718;-75
2022/08/17 14:20:39;;;;;;;;;;;;;;;36.93;18.86;99681.44;5383005;32;36242;-67
2022/08/17 14:23:42;;;;;;;;;;;;;;;36.79;19.16;99681.75;5349977;32;34761;-70
2022/08/17 14:26:56;;;;;;;;;;;;;;;36.96;18.65;99684.50;5387771;32;35678;-73
2022/08/17 14:30:02;;;;;;;;;;;;;;;36.71;19.04;99687.63;5368563;32;34608;-68
2022/08/17 14:33:04;;;;;;;;;;;;;;;37.05;18.43;99680.28;5370214;32;34328;-74
2022/08/17 14:36:07;;;;;;;;;;;;;;;37.31;18.01;99683.41;5366264;32;34683;-68
2022/08/17 14:39:09;;;;;;;;;;;;;;;36.61;18.91;99680.06;5366343;32;35032;-67
2022/08/17 14:42:14;;;;;;;;;;;;;;;37.38;18.07;99681.34;5392445;32;35030;-71
2022/08/17 14:45:16;;;;;;;;;;;;;;;36.72;18.43;99683.81;5349761;32;44499;-68
2022/08/17 14:48:37;;;;;;;;;;;;;;;37.37;17.71;99679.69;5379789;32;34094;-68
2022/08/17 14:51:40;;;;;;;;;;;;;;;36.70;18.47;99690.59;5374364;32;36382;-72
2022/08/17 14:54:45;;;;;;;;;;;;;;;37.18;18.11;99681.00;5358654;32;44565;-72
2022/08/17 14:57:47;;;;;;;;;;;;;;;36.45;18.76;99678.12;5358819;32;35587;-72
2022/08/17 15:00:52;;;;;;;;;;;;;;;37.21;17.97;99669.53;5371876;32;35694;-68
2022/08/17 15:03:54;;;;;;;;;;;;;;;37.77;17.38;99676.62;5380946;32;35038;-72
2022/08/17 15:06:57;;;;;;;;;;;;;;;36.28;18.76;99680.00;5363521;32;35742;-68
2022/08/17 15:09:59;;;;;;;;;;;;;;;36.64;18.44;99672.44;5382301;32;34630;-70
2022/08/17 15:13:02;;;;;;;;;;;;;;;36.71;18.32;99671.22;5370263;32;34482;-68
2022/08/17 15:16:04;;;;;;;;;;;;;;;36.38;18.64;99677.44;5359531;32;34663;-66
2022/08/17 15:19:06;;;;;;;;;;;;;;;36.01;18.78;99685.22;5374836;32;34657;-67
2022/08/17 15:22:16;;;;;;;;;;;;;;;36.37;18.57;99681.25;5358304;32;34001;-71
2022/08/17 15:25:18;;;;;;;;;;;;;;;36.53;18.26;99674.19;5387029;32;44380;-71
2022/08/17 15:28:23;;;;;;;;;;;;;;;36.27;18.29;99681.91;5374025;32;34616;-67
2022/08/17 15:31:25;;;;;;;;;;;;;;;35.84;18.92;99681.56;5388484;32;34830;-67
2022/08/17 15:34:33;;;;;;;;;;;;;;;36.39;18.23;99683.75;5364556;32;34323;-68
2022/08/17 15:37:36;;;;;;;;;;;;;;;36.58;18.18;99687.94;5369356;32;34435;-71
2022/08/17 15:40:39;;;;;;;;;;;;;;;36.48;18.46;99676.81;5372749;32;34922;-71
2022/08/17 15:43:41;;;;;;;;;;;;;;;36.55;18.38;99681.06;5364913;32;34988;-70
2022/08/17 15:46:43;;;;;;;;;;;;;;;36.94;17.92;99670.22;5369284;32;34277;-67
2022/08/17 15:49:45;;;;;;;;;;;;;;;35.89;19.15;99679.75;5349390;32;44722;-71
2022/08/17 15:52:52;;;;;;;;;;;;;;;35.90;19.01;99680.59;5371050;32;34808;-67
2022/08/17 15:55:54;;;;;;;;;;;;;;;36.29;18.55;99690.69;5366743;32;34739;-71
2022/08/17 15:58:56;;;;;;;;;;;;;;;36.11;18.58;99692.78;5352932;32;35019;-67
2022/08/17 16:01:58;;;;;;;;;;;;;;;36.21;18.68;99690.25;5376067;32;34237;-67
2022/08/17 16:05:21;;;;;;;;;;;;;;;35.86;19.18;99685.69;5360490;32;44939;-69
2022/08/17 16:08:27;;;;;;;;;;;;;;;36.35;18.84;99686.13;5382226;32;34690;-71
2022/08/17 16:11:29;;;;;;;;;;;;;;;36.53;18.66;99688.69;5371930;32;34886;-71
2022/08/17 16:14:31;;;;;;;;;;;;;;;36.71;18.42;99686.78;5362910;32;34196;-68
2022/08/17 16:17:36;;;;;;;;;;;;;;;36.20;18.80;99683.13;5379031;32;35248;-71
2022/08/17 16:20:41;;;;;;;;;;;;;;;35.51;19.66;99678.41;5368017;32;35212;-70
2022/08/17 16:23:43;;;;;;;;;;;;;;;35.30;19.79;99680.91;5377190;32;35358;-68
2022/08/17 16:26:45;;;;;;;;;;;;;;;35.95;19.14;99683.47;5372792;32;45523;-67
2022/08/17 16:29:47;;;;;;;;;;;;;;;35.78;19.57;99678.69;5379658;32;35581;-71
2022/08/17 16:32:55;;;;;;;;;;;;;;;35.91;18.90;99677.62;5370934;32;35840;-71
2022/08/17 16:35:57;;;;;;;;;;;;;;;35.80;19.23;99670.25;5373301;32;35625;-67
2022/08/17 16:39:00;;;;;;;;;;;;;;;35.62;19.64;99676.75;5378691;32;34410;-68
2022/08/17 16:42:02;;;;;;;;;;;;;;;35.95;19.15;99684.28;5380249;32;34914;-72